Time;durP1;ratioP1;P1;durP2;ratioP2;P2;SDS_P1;SDS_P2;PMS_P1;PMS_P2;Temp;Humidity;BMP_temperature;BMP_pressure;BME280_temperature;BME280_humidity;BME280_pressure;Samples;Min_cycle;Max_cycle;Signal;HPM_P1;HPM_P2
2021/03/13 00:00:16;;;;;;;45.70;22.73;;;2.20;99.90;;;;;;5066112;28;20218;-88
2021/03/13 00:02:43;;;;;;;48.83;23.23;;;1.90;99.90;;;;;;5064707;28;20184;-89
2021/03/13 00:05:10;;;;;;;50.80;23.50;;;1.90;99.90;;;;;;5025150;28;20601;-88
2021/03/13 00:07:38;;;;;;;45.73;22.67;;;1.90;99.90;;;;;;5056712;28;20234;-91
2021/03/13 00:10:04;;;;;;;50.10;25.70;;;1.90;99.90;;;;;;5037825;28;20679;-91
2021/03/13 00:12:30;;;;;;;51.63;24.90;;;1.90;99.90;;;;;;5037535;28;20237;-92
2021/03/13 00:14:56;;;;;;;49.73;25.23;;;2.40;99.90;;;;;;5037317;28;20210;-92
2021/03/13 00:17:21;;;;;;;50.80;23.73;;;1.80;99.90;;;;;;5020778;28;20636;-92
2021/03/13 00:19:47;;;;;;;46.67;24.37;;;2.70;99.90;;;;;;5037315;28;20230;-91
2021/03/13 00:22:13;;;;;;;45.40;22.57;;;1.80;99.90;;;;;;5021594;28;20188;-91
2021/03/13 00:24:39;;;;;;;46.10;23.70;;;3.00;99.90;;;;;;5055797;28;20515;-90
2021/03/13 00:27:05;;;;;;;48.10;23.30;;;2.90;99.90;;;;;;5055839;28;20183;-91
2021/03/13 00:29:30;;;;;;;47.87;23.23;;;1.90;99.90;;;;;;5038254;28;20676;-90
2021/03/13 00:31:56;;;;;;;45.20;23.70;;;1.90;99.90;;;;;;5020896;28;20549;-91
2021/03/13 00:34:22;;;;;;;49.13;24.07;;;2.60;99.90;;;;;;5037828;28;20175;-90
2021/03/13 00:36:48;;;;;;;43.93;23.70;;;1.90;99.90;;;;;;5055354;28;20209;-91
2021/03/13 00:39:15;;;;;;;53.67;24.50;;;2.40;99.90;;;;;;5056132;28;20226;-91
2021/03/13 00:41:41;;;;;;;49.63;23.50;;;1.80;99.90;;;;;;5037914;28;20234;-91
2021/03/13 00:44:07;;;;;;;47.50;24.20;;;3.10;99.90;;;;;;5054772;28;20553;-92
2021/03/13 00:46:33;;;;;;;43.37;23.23;;;2.00;99.90;;;;;;5037948;28;20206;-92
2021/03/13 00:48:58;;;;;;;45.40;23.70;;;1.70;99.90;;;;;;5037452;28;20238;-92
2021/03/13 00:51:24;;;;;;;43.10;23.43;;;1.70;99.90;;;;;;5036859;28;20282;-92
2021/03/13 00:53:50;;;;;;;47.03;24.20;;;1.70;99.90;;;;;;5020761;28;20631;-91
2021/03/13 00:56:15;;;;;;;48.13;23.60;;;1.70;99.90;;;;;;5020818;28;20665;-92
2021/03/13 00:58:41;;;;;;;47.87;24.13;;;1.70;99.90;;;;;;5037043;28;20183;-89
2021/03/13 01:01:07;;;;;;;43.60;22.33;;;1.60;99.90;;;;;;5037080;28;20241;-90
2021/03/13 01:03:33;;;;;;;47.67;24.07;;;1.60;99.90;;;;;;5054722;28;20219;-90
2021/03/13 01:05:58;;;;;;;46.33;22.60;;;1.60;99.90;;;;;;5054578;28;20184;-91
2021/03/13 01:08:24;;;;;;;47.40;23.23;;;1.60;99.90;;;;;;5036681;28;20691;-88
2021/03/13 01:10:51;;;;;;;47.97;24.67;;;1.60;99.90;;;;;;5020143;28;20183;-91
2021/03/13 01:13:19;;;;;;;51.87;24.33;;;2.30;99.90;;;;;;5054559;28;20187;-90
2021/03/13 01:15:45;;;;;;;48.73;24.87;;;2.20;99.90;;;;;;5054341;28;20203;-91
2021/03/13 01:18:11;;;;;;;56.77;25.93;;;1.50;99.90;;;;;;5037012;28;20188;-92
2021/03/13 01:20:36;;;;;;;48.27;23.97;;;1.50;99.90;;;;;;5054968;28;20655;-91
2021/03/13 01:23:03;;;;;;;56.20;26.00;;;1.50;99.90;;;;;;5054213;28;20199;-91
2021/03/13 01:25:28;;;;;;;48.70;24.67;;;2.20;99.90;;;;;;5020579;28;20270;-90
2021/03/13 01:27:55;;;;;;;43.67;23.53;;;1.40;99.90;;;;;;5036503;28;20536;-90
2021/03/13 01:30:21;;;;;;;48.60;25.10;;;2.50;99.90;;;;;;5019808;28;20188;-91
2021/03/13 01:32:51;;;;;;;54.10;26.77;;;1.60;99.90;;;;;;5054215;28;20194;-88
2021/03/13 01:35:17;;;;;;;56.60;25.13;;;2.10;99.90;;;;;;5020507;28;20672;-91
2021/03/13 01:37:43;;;;;;;55.97;25.37;;;2.60;99.90;;;;;;5037079;28;20180;-91
2021/03/13 01:40:15;;;;;;;46.97;25.20;;;1.60;99.90;;;;;;5036366;28;20186;-91
2021/03/13 01:42:41;;;;;;;51.17;25.07;;;1.60;99.90;;;;;;5053136;28;20160;-91
2021/03/13 01:45:08;;;;;;;46.40;24.87;;;1.60;99.90;;;;;;5053116;28;20183;-91
2021/03/13 01:47:35;;;;;;;57.77;24.50;;;1.60;99.90;;;;;;5053594;28;20175;-91
2021/03/13 01:50:01;;;;;;;50.93;24.10;;;1.60;99.90;;;;;;5018548;28;20216;-91
2021/03/13 01:52:27;;;;;;;50.47;24.57;;;1.50;99.90;;;;;;5035400;28;20266;-90
2021/03/13 01:54:53;;;;;;;51.77;24.20;;;1.60;99.90;;;;;;5035262;28;20276;-90
2021/03/13 01:57:19;;;;;;;56.53;25.97;;;1.90;99.90;;;;;;5053440;28;20184;-92
2021/03/13 01:59:46;;;;;;;52.90;25.57;;;2.20;99.90;;;;;;5052874;28;20231;-91
2021/03/13 02:02:14;;;;;;;50.47;24.80;;;2.30;99.90;;;;;;5052892;28;20164;-91
2021/03/13 02:04:41;;;;;;;50.37;24.50;;;1.50;99.90;;;;;;5035150;28;20225;-91
2021/03/13 02:07:32;;;;;;;47.90;24.33;;;1.70;99.90;;;;;;5035634;28;20180;-91
2021/03/13 02:10:03;;;;;;;50.03;24.27;;;1.50;99.90;;;;;;5053023;28;20284;-90
2021/03/13 02:12:59;;;;;;;51.77;24.80;;;1.50;99.90;;;;;;5053261;28;20206;-90
2021/03/13 02:15:46;;;;;;;50.40;23.70;;;1.50;99.90;;;;;;5053259;28;20175;-92
2021/03/13 02:18:30;;;;;;;58.00;25.97;;;1.50;99.90;;;;;;5052876;28;20221;-91
2021/03/13 02:21:14;;;;;;;45.33;23.97;;;1.50;99.90;;;;;;5052662;28;20194;-90
2021/03/13 02:23:56;;;;;;;45.93;23.27;;;1.50;99.90;;;;;;5035027;28;20624;-92
2021/03/13 02:26:51;;;;;;;50.47;22.83;;;1.50;99.90;;;;;;5053506;28;20179;-91
2021/03/13 02:29:30;;;;;;;40.40;21.57;;;1.50;99.90;;;;;;5034965;28;20242;-92
2021/03/13 02:32:01;;;;;;;45.00;22.80;;;1.50;99.90;;;;;;5052499;28;20640;-91
2021/03/13 02:34:32;;;;;;;46.37;23.10;;;1.90;99.90;;;;;;5035171;28;20184;-90
2021/03/13 02:37:01;;;;;;;54.33;24.50;;;1.60;99.90;;;;;;5034745;28;20180;-89
2021/03/13 02:39:28;;;;;;;48.17;22.60;;;1.50;99.90;;;;;;5052887;28;20200;-90
2021/03/13 02:42:00;;;;;;;54.17;24.77;;;1.60;99.90;;;;;;5034659;28;20199;-90
2021/03/13 02:44:27;;;;;;;54.53;24.60;;;2.30;99.90;;;;;;5034631;28;20176;-90
2021/03/13 02:46:53;;;;;;;48.70;24.63;;;1.40;99.90;;;;;;5034869;28;20278;-89
2021/03/13 02:49:21;;;;;;;45.37;22.53;;;2.40;99.90;;;;;;5034428;28;20712;-90
2021/03/13 02:51:47;;;;;;;46.03;20.70;;;2.40;99.90;;;;;;5052072;28;20237;-90
2021/03/13 02:54:16;;;;;;;48.00;22.10;;;1.40;99.90;;;;;;5034195;28;20175;-90
2021/03/13 02:56:44;;;;;;;39.80;20.37;;;1.40;99.90;;;;;;5035293;28;20193;-90
2021/03/13 02:59:11;;;;;;;37.30;17.43;;;2.10;99.90;;;;;;5033698;28;20208;-89
2021/03/13 03:01:38;;;;;;;41.10;19.90;;;2.00;99.90;;;;;;5051698;28;20230;-91
2021/03/13 03:04:06;;;;;;;34.80;17.27;;;1.90;99.90;;;;;;5051432;28;20180;-90
2021/03/13 03:06:34;;;;;;;35.37;17.60;;;2.20;99.90;;;;;;5053242;28;20198;-90
2021/03/13 03:09:01;;;;;;;37.47;16.53;;;1.50;99.90;;;;;;5037238;28;20546;-90
2021/03/13 03:11:27;;;;;;;36.97;16.77;;;1.90;99.90;;;;;;5054995;28;20229;-91
2021/03/13 03:13:54;;;;;;;31.83;17.00;;;1.50;99.90;;;;;;5020760;28;20210;-90
2021/03/13 03:16:23;;;;;;;32.13;15.50;;;1.60;99.90;;;;;;5037497;28;20775;-90
2021/03/13 03:18:55;;;;;;;31.47;15.13;;;1.60;99.90;;;;;;5055312;28;20184;-91
2021/03/13 03:21:21;;;;;;;30.40;16.17;;;1.90;99.90;;;;;;5037692;28;20172;-91
2021/03/13 03:23:48;;;;;;;27.47;14.40;;;2.30;99.90;;;;;;5055747;28;20180;-91
2021/03/13 03:26:13;;;;;;;35.50;16.43;;;1.70;99.90;;;;;;5021103;28;20701;-91
2021/03/13 03:28:39;;;;;;;37.10;15.87;;;2.70;99.90;;;;;;5037665;28;20212;-91
2021/03/13 03:31:05;;;;;;;35.42;15.77;;;1.60;99.90;;;;;;5037278;28;20400;-92
2021/03/13 03:33:31;;;;;;;32.63;15.43;;;2.20;99.90;;;;;;5021443;28;20231;-91
2021/03/13 03:35:57;;;;;;;31.57;15.07;;;2.50;99.90;;;;;;5005157;28;20659;-91
2021/03/13 03:38:22;;;;;;;26.43;13.70;;;1.60;99.90;;;;;;5021146;28;21003;-91
2021/03/13 03:40:48;;;;;;;35.90;14.60;;;3.10;99.90;;;;;;5054854;28;20172;-91
2021/03/13 03:43:38;;;;;;;30.77;14.57;;;1.50;99.90;;;;;;5055122;28;20168;-90
2021/03/13 03:46:05;;;;;;;31.40;14.70;;;1.60;99.90;;;;;;5037066;28;20176;-86
2021/03/13 03:48:33;;;;;;;35.30;15.27;;;1.50;99.90;;;;;;5037203;28;20569;-91
2021/03/13 03:51:00;;;;;;;33.83;15.13;;;1.50;99.90;;;;;;5054961;28;20633;-91
2021/03/13 03:53:33;;;;;;;24.60;13.10;;;1.90;99.90;;;;;;5037241;28;20179;-90
2021/03/13 03:56:01;;;;;;;28.33;13.50;;;1.80;99.90;;;;;;5037178;28;20533;-91
2021/03/13 03:58:30;;;;;;;23.50;12.63;;;2.90;99.90;;;;;;5054981;28;20187;-91
2021/03/13 04:00:57;;;;;;;28.97;12.93;;;1.50;99.90;;;;;;5054544;28;20223;-93
2021/03/13 04:03:24;;;;;;;22.70;12.87;;;1.70;99.90;;;;;;5056113;28;20267;-93
2021/03/13 04:05:50;;;;;;;24.63;13.37;;;1.40;99.90;;;;;;5021009;28;20576;-92
2021/03/13 04:08:18;;;;;;;29.53;14.33;;;1.90;99.90;;;;;;5037400;28;20237;-92
2021/03/13 04:10:47;;;;;;;32.70;14.27;;;2.30;99.90;;;;;;5036883;28;20188;-89
2021/03/13 04:13:15;;;;;;;27.93;13.23;;;1.40;99.90;;;;;;5037845;28;20187;-89
2021/03/13 04:15:43;;;;;;;30.17;13.20;;;1.30;99.90;;;;;;5057249;28;20176;-94
2021/03/13 04:18:10;;;;;;;24.27;12.20;;;1.30;99.90;;;;;;5038066;28;20712;-92
2021/03/13 04:20:37;;;;;;;30.50;12.93;;;2.00;99.90;;;;;;5039311;28;20237;-91
2021/03/13 04:23:03;;;;;;;25.27;13.07;;;1.30;99.90;;;;;;5039318;28;20195;-93
2021/03/13 04:25:32;;;;;;;27.40;13.10;;;1.30;99.90;;;;;;5057496;28;20188;-92
2021/03/13 04:27:59;;;;;;;25.63;11.80;;;1.60;99.90;;;;;;5056729;28;20168;-94
2021/03/13 04:30:25;;;;;;;32.87;14.00;;;2.20;99.90;;;;;;5056638;28;20183;-95
2021/03/13 04:32:54;;;;;;;29.27;12.73;;;1.30;99.90;;;;;;5056913;28;20176;-95
2021/03/13 04:35:23;;;;;;;25.80;11.87;;;1.30;99.90;;;;;;5057437;28;20184;-92
2021/03/13 04:37:50;;;;;;;26.23;13.73;;;1.30;99.90;;;;;;5038982;28;20273;-91
2021/03/13 04:40:17;;;;;;;26.23;11.30;;;1.40;99.90;;;;;;5039261;28;20180;-92
2021/03/13 04:42:44;;;;;;;29.67;12.70;;;1.20;99.90;;;;;;5006804;28;20180;-93
2021/03/13 04:45:12;;;;;;;25.30;11.30;;;1.20;99.90;;;;;;5037668;28;20184;-93
2021/03/13 04:47:44;;;;;;;26.67;12.60;;;1.20;99.90;;;;;;5020686;28;20525;-93
2021/03/13 04:50:10;;;;;;;31.00;12.40;;;1.30;99.90;;;;;;5054257;28;20226;-90
2021/03/13 04:52:36;;;;;;;23.47;12.33;;;1.20;99.90;;;;;;5036001;28;20184;-91
2021/03/13 04:55:02;;;;;;;32.73;16.10;;;1.20;99.90;;;;;;5019578;28;20523;-93
2021/03/13 04:57:27;;;;;;;40.80;20.67;;;1.30;99.90;;;;;;5036288;28;20184;-92
2021/03/13 04:59:53;;;;;;;32.00;16.93;;;1.30;99.90;;;;;;5036173;28;20224;-91
2021/03/13 05:02:19;;;;;;;32.43;16.43;;;1.30;99.90;;;;;;5035883;28;20246;-92
2021/03/13 05:04:44;;;;;;;25.47;12.93;;;1.30;99.90;;;;;;5036061;28;20184;-92
2021/03/13 05:07:10;;;;;;;25.20;11.83;;;2.10;99.90;;;;;;5036001;28;20190;-92
2021/03/13 05:09:36;;;;;;;31.47;14.80;;;2.20;99.90;;;;;;5052762;28;20218;-92
2021/03/13 05:12:02;;;;;;;28.83;15.40;;;1.40;99.90;;;;;;5035915;28;20184;-91
2021/03/13 05:14:27;;;;;;;37.97;21.43;;;1.50;99.90;;;;;;5035229;28;20184;-92
2021/03/13 05:16:53;;;;;;;35.00;15.97;;;1.60;99.90;;;;;;5035654;28;20191;-90
2021/03/13 05:19:19;;;;;;;31.73;16.33;;;2.30;99.90;;;;;;5035584;28;20631;-91
2021/03/13 05:21:45;;;;;;;33.50;14.77;;;1.70;99.90;;;;;;5036167;28;20186;-91
2021/03/13 05:24:10;;;;;;;45.83;19.30;;;2.70;99.90;;;;;;5036163;28;20548;-92
2021/03/13 05:26:36;;;;;;;41.40;19.10;;;1.80;99.90;;;;;;5035561;28;20530;-91
2021/03/13 05:29:02;;;;;;;34.20;17.97;;;1.90;99.90;;;;;;5019629;28;20214;-91
2021/03/13 05:31:27;;;;;;;33.87;14.47;;;1.90;99.90;;;;;;5017599;28;20628;-92
2021/03/13 05:33:53;;;;;;;27.47;13.37;;;2.00;99.90;;;;;;5015838;28;20183;-92
2021/03/13 05:36:19;;;;;;;37.70;17.30;;;2.30;99.90;;;;;;5015956;28;20202;-87
2021/03/13 05:38:44;;;;;;;38.23;16.10;;;2.10;99.90;;;;;;5034555;28;20184;-92
2021/03/13 05:41:10;;;;;;;29.50;13.83;;;2.20;99.90;;;;;;4999240;28;20540;-91
2021/03/13 05:43:39;;;;;;;22.67;11.10;;;2.20;99.90;;;;;;4999076;28;20242;-90
2021/03/13 05:46:06;;;;;;;21.37;10.17;;;2.40;99.90;;;;;;4999612;28;20580;-91
2021/03/13 05:48:34;;;;;;;24.33;11.87;;;2.30;99.90;;;;;;5032980;28;20208;-92
2021/03/13 05:51:02;;;;;;;23.20;11.33;;;3.00;99.90;;;;;;5017661;28;20315;-91
2021/03/13 05:53:30;;;;;;;22.13;11.43;;;2.40;99.90;;;;;;5038602;28;20181;-93
2021/03/13 05:55:56;;;;;;;18.70;10.10;;;2.50;99.90;;;;;;5006760;28;20215;-94
2021/03/13 05:58:22;;;;;;;23.23;10.90;;;2.50;99.90;;;;;;5005084;28;20641;-88
2021/03/13 06:00:51;;;;;;;18.73;9.50;;;2.60;99.90;;;;;;5034236;28;20229;-92
2021/03/13 06:03:17;;;;;;;21.67;9.77;;;3.30;99.90;;;;;;5018042;28;20207;-91
2021/03/13 06:05:47;;;;;;;20.07;9.90;;;3.60;99.90;;;;;;5050527;28;20213;-90
2021/03/13 06:08:16;;;;;;;19.37;9.53;;;2.90;99.90;;;;;;5040035;28;20272;-89
2021/03/13 06:10:42;;;;;;;21.27;10.90;;;3.00;99.90;;;;;;5041374;28;20199;-86
2021/03/13 06:13:09;;;;;;;29.63;13.60;;;3.20;99.90;;;;;;5053004;28;20200;-88
2021/03/13 06:15:35;;;;;;;35.60;16.20;;;3.30;99.90;;;;;;5055791;28;20237;-88
2021/03/13 06:18:03;;;;;;;32.40;16.07;;;3.40;99.90;;;;;;5034597;28;20310;-92
2021/03/13 06:20:38;;;;;;;27.77;15.13;;;3.50;99.90;;;;;;5017420;28;20599;-92
2021/03/13 06:23:13;;;;;;;26.43;13.33;;;3.60;99.90;;;;;;5028928;28;20362;-88
2021/03/13 06:25:41;;;;;;;32.33;16.00;;;3.90;99.90;;;;;;5023202;28;20525;-86
2021/03/13 06:28:15;;;;;;;25.47;12.50;;;3.80;99.90;;;;;;5043295;28;20219;-89
2021/03/13 06:30:48;;;;;;;41.53;24.50;;;4.40;99.90;;;;;;5044712;28;20234;-89
2021/03/13 06:33:30;;;;;;;30.10;13.03;;;5.10;99.90;;;;;;5049541;28;20196;-90
2021/03/13 06:36:06;;;;;;;24.50;13.03;;;5.50;99.90;;;;;;5047980;28;20178;-89
2021/03/13 06:38:37;;;;;;;29.23;13.67;;;5.70;99.90;;;;;;5032273;28;20187;-89
2021/03/13 06:41:24;;;;;;;27.57;13.13;;;5.40;99.90;;;;;;5052774;28;20160;-92
2021/03/13 06:43:52;;;;;;;25.27;12.63;;;5.10;99.90;;;;;;5038682;28;20209;-94
2021/03/13 06:46:20;;;;;;;26.70;12.93;;;4.90;99.90;;;;;;5050578;28;20206;-95
2021/03/13 06:48:54;;;;;;;20.07;9.23;;;4.80;99.90;;;;;;5030142;28;20233;-94
2021/03/13 06:51:22;;;;;;;18.17;9.50;;;4.80;99.90;;;;;;5043848;28;20734;-96
2021/03/13 06:54:18;;;;;;;19.23;9.50;;;4.70;99.90;;;;;;5024683;28;20190;-93
2021/03/13 06:56:54;;;;;;;23.67;11.87;;;4.70;99.90;;;;;;4983515;28;20829;-95
2021/03/13 06:59:32;;;;;;;20.43;11.63;;;4.70;99.90;;;;;;5016753;28;20263;-91
2021/03/13 07:02:07;;;;;;;18.23;9.00;;;4.70;99.90;;;;;;5015789;28;20223;-92
2021/03/13 07:04:39;;;;;;;19.27;9.80;;;4.60;99.90;;;;;;5014282;28;20191;-92
2021/03/13 07:07:07;;;;;;;26.40;10.67;;;4.60;99.90;;;;;;5026841;28;20655;-88
2021/03/13 07:09:54;;;;;;;22.20;10.10;;;4.60;99.90;;;;;;5053350;28;20218;-87
2021/03/13 07:12:22;;;;;;;19.67;11.10;;;4.80;99.90;;;;;;5056003;28;20161;-92
2021/03/13 07:14:48;;;;;;;25.17;12.80;;;4.80;99.90;;;;;;5058803;28;20594;-91
2021/03/13 07:17:14;;;;;;;24.30;12.47;;;5.10;99.90;;;;;;5054957;28;20659;-93
2021/03/13 07:19:41;;;;;;;18.47;10.20;;;5.10;99.90;;;;;;5055163;28;20203;-92
2021/03/13 07:22:07;;;;;;;22.50;11.70;;;5.20;99.90;;;;;;5055198;28;20171;-89
2021/03/13 07:24:35;;;;;;;21.07;10.10;;;5.30;99.90;;;;;;5030355;28;20211;-92
2021/03/13 07:27:04;;;;;;;20.93;9.93;;;5.40;99.90;;;;;;5032475;28;20306;-91
2021/03/13 07:29:31;;;;;;;21.70;9.97;;;5.50;99.90;;;;;;5028862;28;20208;-91
2021/03/13 07:32:12;;;;;;;18.37;8.30;;;5.60;99.90;;;;;;5036854;28;20187;-90
2021/03/13 07:34:40;;;;;;;18.03;8.90;;;5.80;99.90;;;;;;5054375;28;20163;-89
2021/03/13 07:37:08;;;;;;;16.67;8.40;;;5.90;99.90;;;;;;5039864;28;20176;-93
2021/03/13 07:39:41;;;;;;;19.63;8.13;;;5.90;99.90;;;;;;5017223;28;20184;-92
2021/03/13 07:42:16;;;;;;;17.37;8.97;;;6.00;99.90;;;;;;5042597;28;20171;-91
2021/03/13 07:44:43;;;;;;;15.73;7.40;;;6.00;99.90;;;;;;5046891;28;20183;-89
2021/03/13 07:47:12;;;;;;;16.90;7.87;;;6.00;99.90;;;;;;5027243;28;20550;-90
2021/03/13 07:49:38;;;;;;;13.03;6.20;;;6.00;99.90;;;;;;5055814;28;20203;-88
2021/03/13 07:52:06;;;;;;;17.17;7.97;;;6.00;99.90;;;;;;5050875;28;20675;-88
2021/03/13 07:54:36;;;;;;;11.40;6.00;;;6.00;99.90;;;;;;5018515;28;20189;-90
2021/03/13 07:57:05;;;;;;;12.67;6.37;;;5.90;99.90;;;;;;4998900;28;20187;-88
2021/03/13 07:59:59;;;;;;;13.80;7.17;;;6.00;99.90;;;;;;5032814;28;20180;-88
2021/03/13 08:02:28;;;;;;;12.67;6.73;;;6.10;99.90;;;;;;4998491;28;20279;-89
2021/03/13 08:05:15;;;;;;;14.23;6.70;;;6.20;99.90;;;;;;5032057;28;20629;-90
2021/03/13 08:08:00;;;;;;;13.23;6.33;;;6.20;99.90;;;;;;5029915;28;20273;-87
2021/03/13 08:10:46;;;;;;;14.13;7.03;;;6.20;99.90;;;;;;4996776;28;20607;-90
2021/03/13 08:13:38;;;;;;;14.23;6.70;;;6.20;99.90;;;;;;5013132;28;20653;-89
2021/03/13 08:16:09;;;;;;;14.43;6.03;;;6.20;99.90;;;;;;4990629;28;20221;-91
2021/03/13 08:18:45;;;;;;;15.83;6.50;;;6.20;99.90;;;;;;5013546;28;20180;-92
2021/03/13 08:21:38;;;;;;;14.40;6.67;;;6.20;99.90;;;;;;5023380;28;20175;-90
2021/03/13 08:24:04;;;;;;;11.60;5.67;;;6.20;99.90;;;;;;5055285;28;20191;-92
2021/03/13 08:26:36;;;;;;;11.17;6.53;;;6.20;99.90;;;;;;5021155;28;20667;-92
2021/03/13 08:29:08;;;;;;;18.53;6.93;;;6.20;99.90;;;;;;5033602;28;20249;-95
2021/03/13 08:31:38;;;;;;;12.00;6.00;;;6.20;99.90;;;;;;5052483;28;20250;-94
2021/03/13 08:34:09;;;;;;;12.47;6.27;;;6.10;99.90;;;;;;5018306;28;20176;-92
2021/03/13 08:36:47;;;;;;;14.53;6.27;;;6.10;99.90;;;;;;5034776;28;20176;-91
2021/03/13 08:39:17;;;;;;;13.77;6.83;;;6.10;99.90;;;;;;5038426;28;20199;-95
2021/03/13 08:41:43;;;;;;;14.57;6.63;;;6.20;99.90;;;;;;5043432;28;20255;-95
2021/03/13 08:44:13;;;;;;;13.97;7.10;;;6.30;99.90;;;;;;5053912;28;20289;-89
2021/03/13 08:46:52;;;;;;;15.80;7.63;;;6.40;99.90;;;;;;5046064;28;20176;-94
2021/03/13 08:49:23;;;;;;;15.37;7.07;;;6.30;99.90;;;;;;5050560;28;20207;-96
2021/03/13 08:52:09;;;;;;;17.03;7.93;;;6.40;99.90;;;;;;5056602;28;20185;-95
2021/03/13 08:54:38;;;;;;;18.13;7.70;;;6.40;99.90;;;;;;5054628;28;20184;-93
2021/03/13 08:57:11;;;;;;;14.70;7.50;;;6.30;99.90;;;;;;5041869;28;20210;-95
2021/03/13 08:59:39;;;;;;;16.87;7.57;;;6.30;99.90;;;;;;5036244;28;20195;-93
2021/03/13 09:02:13;;;;;;;14.57;6.97;;;6.30;99.90;;;;;;5036852;28;20179;-93
2021/03/13 09:04:44;;;;;;;13.13;6.03;;;6.40;99.90;;;;;;5050640;28;20172;-93
2021/03/13 09:07:11;;;;;;;14.03;7.23;;;6.20;99.90;;;;;;5025077;28;20271;-95
2021/03/13 09:09:39;;;;;;;14.73;6.90;;;6.20;99.90;;;;;;5023823;28;20212;-95
2021/03/13 09:12:16;;;;;;;10.53;5.53;;;6.30;99.90;;;;;;5005308;28;20184;-96
2021/03/13 09:14:44;;;;;;;11.37;6.10;;;6.30;99.90;;;;;;5041127;28;20259;-93
2021/03/13 09:17:15;;;;;;;11.73;5.80;;;6.30;99.90;;;;;;5024611;28;20623;-93
2021/03/13 09:19:41;;;;;;;8.23;4.53;;;6.30;99.90;;;;;;5042296;28;20199;-93
2021/03/13 09:22:15;;;;;;;10.53;5.07;;;6.10;99.90;;;;;;5033070;28;20661;-91
2021/03/13 09:24:41;;;;;;;12.93;6.07;;;5.90;99.90;;;;;;5019050;28;20185;-91
2021/03/13 09:27:08;;;;;;;15.60;7.17;;;5.70;99.90;;;;;;5035684;28;20195;-93
2021/03/13 09:29:40;;;;;;;12.43;5.80;;;5.60;99.90;;;;;;5026177;28;20195;-91
2021/03/13 09:32:07;;;;;;;6.40;3.90;;;5.50;99.90;;;;;;5040045;28;20180;-91
2021/03/13 09:34:35;;;;;;;14.60;6.90;;;5.20;99.90;;;;;;5032536;28;20238;-92
2021/03/13 09:37:18;;;;;;;13.60;5.60;;;5.20;99.90;;;;;;5014955;28;20212;-91
2021/03/13 09:39:46;;;;;;;12.67;5.90;;;5.10;99.90;;;;;;5030564;28;20221;-93
2021/03/13 09:42:21;;;;;;;15.30;6.20;;;5.00;99.90;;;;;;5035086;28;20184;-91
2021/03/13 09:45:03;;;;;;;9.77;6.20;;;5.00;99.90;;;;;;5018703;28;20179;-91
2021/03/13 09:47:29;;;;;;;13.77;6.70;;;5.00;99.90;;;;;;5035802;28;20226;-90
2021/03/13 09:50:00;;;;;;;14.50;7.50;;;4.80;99.90;;;;;;5051963;28;20288;-90
2021/03/13 09:52:38;;;;;;;15.17;7.10;;;4.70;99.90;;;;;;5052471;28;20179;-90
2021/03/13 09:55:06;;;;;;;12.93;6.07;;;4.70;99.90;;;;;;5034490;28;20636;-91
2021/03/13 09:57:32;;;;;;;13.43;5.83;;;4.70;99.90;;;;;;5052155;28;20264;-90
2021/03/13 09:59:58;;;;;;;12.07;6.63;;;4.70;99.90;;;;;;5051724;28;20230;-93
2021/03/13 10:02:25;;;;;;;11.93;7.00;;;4.60;99.90;;;;;;5034789;28;20255;-92
2021/03/13 10:04:52;;;;;;;11.00;6.33;;;4.70;99.90;;;;;;5029955;28;20245;-90
2021/03/13 10:07:19;;;;;;;14.43;8.20;;;4.80;99.90;;;;;;5027992;28;20183;-93
2021/03/13 10:09:51;;;;;;;9.57;4.83;;;4.80;99.90;;;;;;5034892;28;20218;-91
2021/03/13 10:12:27;;;;;;;11.10;6.63;;;5.00;99.90;;;;;;5034387;28;21036;-89
2021/03/13 10:14:53;;;;;;;14.97;8.80;;;5.10;99.90;;;;;;5036351;28;20640;-95
2021/03/13 10:17:19;;;;;;;13.00;6.33;;;5.20;99.90;;;;;;5038250;28;20273;-94
2021/03/13 10:19:44;;;;;;;17.67;6.93;;;5.20;99.90;;;;;;5056965;28;20195;-95
2021/03/13 10:22:22;;;;;;;19.33;10.10;;;5.40;99.90;;;;;;5041331;28;20588;-95
2021/03/13 10:24:54;;;;;;;17.67;10.13;;;5.60;99.90;;;;;;5043845;28;20189;-95
2021/03/13 10:27:28;;;;;;;14.87;8.67;;;5.70;99.90;;;;;;5011332;28;20293;-95
2021/03/13 10:30:02;;;;;;;10.57;6.43;;;5.80;99.90;;;;;;5031908;28;20208;-90
2021/03/13 10:32:30;;;;;;;18.37;8.00;;;5.90;99.90;;;;;;5033697;28;20195;-92
2021/03/13 10:35:13;;;;;;;13.07;8.00;;;6.00;99.90;;;;;;5036094;28;20189;-95
2021/03/13 10:38:00;;;;;;;13.20;6.43;;;6.10;99.90;;;;;;5017418;28;20184;-92
2021/03/13 10:40:36;;;;;;;11.23;5.57;;;6.30;99.90;;;;;;5017576;28;20676;-93
2021/03/13 10:43:32;;;;;;;10.70;5.30;;;6.40;99.90;;;;;;5033443;28;20262;-93
2021/03/13 10:45:58;;;;;;;12.10;5.90;;;6.30;99.90;;;;;;5016552;28;20258;-92
2021/03/13 10:48:24;;;;;;;8.70;5.10;;;6.40;99.90;;;;;;5036369;28;20180;-95
2021/03/13 10:50:51;;;;;;;10.83;5.90;;;6.40;99.90;;;;;;5036124;28;20189;-94
2021/03/13 10:53:34;;;;;;;11.23;5.07;;;6.40;99.90;;;;;;5018971;28;20184;-92
2021/03/13 10:56:09;;;;;;;10.37;5.73;;;6.40;99.90;;;;;;5033695;28;20664;-91
2021/03/13 10:58:36;;;;;;;13.67;5.27;;;6.40;99.90;;;;;;5015545;28;20184;-92
2021/03/13 11:01:05;;;;;;;10.67;5.27;;;6.60;99.90;;;;;;5043216;28;20232;-89
2021/03/13 11:03:31;;;;;;;12.63;5.03;;;6.90;99.90;;;;;;5013604;28;20272;-92
2021/03/13 11:05:57;;;;;;;9.57;4.93;;;7.20;99.90;;;;;;5019120;28;20223;-92
2021/03/13 11:08:25;;;;;;;11.60;4.53;;;7.50;99.90;;;;;;5040466;28;20181;-94
2021/03/13 11:10:52;;;;;;;10.07;4.67;;;7.80;99.90;;;;;;5016861;28;20668;-95
2021/03/13 11:13:18;;;;;;;8.83;4.60;;;7.90;99.90;;;;;;5032800;28;20195;-92
2021/03/13 11:15:44;;;;;;;13.50;5.47;;;8.00;99.90;;;;;;5016341;28;20197;-93
2021/03/13 11:18:10;;;;;;;8.37;5.27;;;8.20;99.90;;;;;;5034781;28;20192;-93
2021/03/13 11:20:37;;;;;;;8.40;4.37;;;8.40;99.90;;;;;;5035758;28;20188;-96
2021/03/13 11:23:03;;;;;;;12.13;4.83;;;8.50;99.90;;;;;;5022882;28;20181;-95
2021/03/13 11:25:29;;;;;;;13.00;4.80;;;8.70;99.90;;;;;;5015839;28;20740;-91
2021/03/13 11:27:55;;;;;;;7.87;4.70;;;8.90;99.90;;;;;;5000198;28;20283;-96
2021/03/13 11:30:21;;;;;;;9.53;5.10;;;9.10;99.90;;;;;;5015628;28;20577;-91
2021/03/13 11:32:47;;;;;;;7.60;4.23;;;9.30;99.90;;;;;;5015765;28;20195;-92
2021/03/13 11:35:13;;;;;;;7.57;4.17;;;9.50;99.90;;;;;;5014525;28;20702;-91
2021/03/13 11:37:40;;;;;;;9.17;4.03;;;9.40;99.90;;;;;;5015267;28;20303;-92
2021/03/13 11:40:09;;;;;;;9.37;4.47;;;9.10;99.90;;;;;;5032712;28;20185;-93
2021/03/13 11:42:36;;;;;;;8.67;4.30;;;8.90;99.90;;;;;;5039784;28;20262;-90
2021/03/13 11:45:07;;;;;;;8.57;4.27;;;8.90;99.90;;;;;;5016743;28;20189;-92
2021/03/13 11:47:33;;;;;;;11.70;4.53;;;8.80;99.90;;;;;;5033115;28;20216;-91
2021/03/13 11:49:59;;;;;;;7.67;4.20;;;8.80;99.90;;;;;;5031429;28;20565;-88
2021/03/13 11:52:25;;;;;;;9.67;4.50;;;8.80;99.90;;;;;;5032225;28;20193;-92
2021/03/13 11:54:52;;;;;;;11.13;3.90;;;8.90;99.90;;;;;;5034143;28;20590;-91
2021/03/13 11:57:19;;;;;;;10.20;4.53;;;9.10;99.90;;;;;;5032096;28;20193;-91
2021/03/13 11:59:46;;;;;;;6.07;3.63;;;9.40;99.90;;;;;;5014026;28;20291;-88
2021/03/13 12:02:13;;;;;;;10.63;5.10;;;9.50;97.50;;;;;;5023335;28;20189;-93
2021/03/13 12:04:39;;;;;;;8.23;4.63;;;9.60;97.40;;;;;;5016763;28;20255;-91
2021/03/13 12:07:06;;;;;;;10.57;4.83;;;9.70;96.40;;;;;;5018383;28;20176;-88
2021/03/13 12:09:32;;;;;;;9.10;4.67;;;9.80;94.80;;;;;;5031114;28;20211;-89
2021/03/13 12:11:59;;;;;;;7.37;4.03;;;9.70;93.80;;;;;;5041252;28;20207;-90
2021/03/13 12:14:26;;;;;;;6.50;3.90;;;9.60;94.00;;;;;;5004295;28;20594;-88
2021/03/13 12:16:51;;;;;;;9.47;4.83;;;9.60;93.50;;;;;;5044268;28;20236;-86
2021/03/13 12:19:17;;;;;;;10.67;4.50;;;9.60;94.20;;;;;;5052333;28;20200;-84
2021/03/13 12:21:43;;;;;;;7.57;3.70;;;9.60;93.80;;;;;;5060133;28;20178;-87
2021/03/13 12:24:12;;;;;;;12.53;5.10;;;9.70;94.50;;;;;;5037337;28;20223;-85
2021/03/13 12:26:37;;;;;;;10.13;4.80;;;9.90;94.50;;;;;;5036433;28;20189;-89
2021/03/13 12:29:03;;;;;;;7.10;3.30;;;10.00;92.80;;;;;;5036430;28;20219;-88
2021/03/13 12:31:30;;;;;;;10.33;4.43;;;10.20;90.20;;;;;;5050390;28;20231;-87
2021/03/13 12:33:56;;;;;;;5.83;3.63;;;10.30;88.80;;;;;;5032429;28;20199;-85
2021/03/13 12:36:21;;;;;;;6.23;3.00;;;10.50;88.40;;;;;;5051663;28;20640;-84
2021/03/13 12:38:47;;;;;;;7.97;3.90;;;10.60;85.10;;;;;;5022663;28;20196;-91
2021/03/13 12:41:12;;;;;;;7.20;3.83;;;10.50;85.40;;;;;;5030794;28;20961;-88
2021/03/13 12:43:38;;;;;;;7.80;4.00;;;10.60;82.80;;;;;;5012795;28;20185;-86
2021/03/13 12:46:04;;;;;;;7.13;3.23;;;10.70;81.20;;;;;;5029481;28;20245;-88
2021/03/13 12:48:30;;;;;;;7.83;3.30;;;10.60;79.30;;;;;;5029634;28;20188;-88
2021/03/13 12:50:56;;;;;;;8.30;4.07;;;10.50;80.60;;;;;;5012653;28;20692;-91
2021/03/13 12:53:22;;;;;;;8.60;3.33;;;10.40;81.70;;;;;;5012330;28;20686;-88